Time;durP1;ratioP1;P1;durP2;ratioP2;P2;SDS_P1;SDS_P2;PMS_P1;PMS_P2;Temp;Humidity;BMP_temperature;BMP_pressure;BME280_temperature;BME280_humidity;BME280_pressure;Samples;Min_cycle;Max_cycle;Signal;HPM_P1;HPM_P2
2022/06/02 00:02:51;;;;;;;1.80;1.70;;;12.90;99.90;;;;;;7372585;19;20386;-74
2022/06/02 00:05:21;;;;;;;1.80;1.70;;;12.90;99.90;;;;;;7373438;19;20390;-74
2022/06/02 00:08:04;;;;;;;1.70;1.60;;;12.80;99.90;;;;;;7373805;19;20366;-74
2022/06/02 00:11:07;;;;;;;1.73;1.63;;;12.80;99.90;;;;;;7380011;19;20378;-75
2022/06/02 00:13:43;;;;;;;1.60;1.50;;;12.80;99.90;;;;;;7377433;19;20368;-74
2022/06/02 00:16:17;;;;;;;1.85;1.75;;;12.80;99.90;;;;;;7379270;19;20866;-74
2022/06/02 00:18:57;;;;;;;1.70;1.60;;;12.80;99.90;;;;;;7383078;19;20369;-74
2022/06/02 00:21:51;;;;;;;1.88;1.77;;;12.80;99.90;;;;;;7376009;19;20362;-74
2022/06/02 00:24:29;;;;;;;1.80;1.70;;;12.70;99.90;;;;;;7380911;19;20365;-75
2022/06/02 00:27:02;;;;;;;2.40;1.63;;;12.60;99.90;;;;;;7379623;19;20452;-74
2022/06/02 00:29:42;;;;;;;1.60;1.50;;;12.60;99.90;;;;;;7380525;19;20364;-77
2022/06/02 00:32:14;;;;;;;1.60;1.50;;;12.60;99.90;;;;;;7378617;19;20388;-74
2022/06/02 00:34:50;;;;;;;4.00;1.70;;;12.60;99.90;;;;;;7379150;19;20405;-74
2022/06/02 00:37:31;;;;;;;1.60;1.50;;;12.60;99.90;;;;;;7378261;19;20369;-74
2022/06/02 00:39:56;;;;;;;1.80;1.70;;;12.50;99.90;;;;;;7379102;19;20417;-75
2022/06/02 00:42:39;;;;;;;1.48;1.40;;;12.40;99.90;;;;;;7376983;19;20372;-76
2022/06/02 00:45:11;;;;;;;1.88;1.77;;;12.40;99.90;;;;;;7378032;19;20424;-75
2022/06/02 00:47:51;;;;;;;1.77;1.63;;;12.30;99.90;;;;;;7380654;19;20332;-75
2022/06/02 00:50:32;;;;;;;1.58;1.48;;;12.30;99.90;;;;;;7379545;19;20372;-75
2022/06/02 00:53:35;;;;;;;1.70;1.60;;;12.30;99.90;;;;;;7378115;19;20360;-75
2022/06/02 00:59:09;;;;;;;1.50;1.40;;;12.30;99.90;;;;;;7381039;19;20341;-75
2022/06/02 01:01:36;;;;;;;1.60;1.50;;;12.30;99.90;;;;;;7373670;19;20966;-76
2022/06/02 01:04:20;;;;;;;1.70;1.60;;;12.40;99.90;;;;;;7378263;19;20364;-75
2022/06/02 01:06:49;;;;;;;1.70;1.50;;;12.30;99.90;;;;;;7378162;19;20363;-75
2022/06/02 01:09:39;;;;;;;1.60;1.50;;;12.30;99.90;;;;;;7377729;19;20349;-75
2022/06/02 01:12:35;;;;;;;1.70;1.60;;;12.30;99.90;;;;;;7375913;19;21613;-75
2022/06/02 01:15:05;;;;;;;1.75;1.65;;;12.30;99.90;;;;;;7378482;19;20372;-75
2022/06/02 01:17:59;;;;;;;1.60;1.50;;;12.30;99.90;;;;;;7380228;19;20336;-75
2022/06/02 01:20:53;;;;;;;2.10;1.48;;;12.30;99.90;;;;;;7377691;19;20376;-75
2022/06/02 01:23:47;;;;;;;1.70;1.60;;;12.30;99.90;;;;;;7379476;19;20422;-76
2022/06/02 01:26:47;;;;;;;1.60;1.50;;;12.20;99.90;;;;;;7374796;19;20361;-75
2022/06/02 01:29:18;;;;;;;1.73;1.52;;;12.20;99.90;;;;;;7378885;19;20348;-74
2022/06/02 01:31:49;;;;;;;1.75;1.65;;;12.10;99.90;;;;;;7360595;19;20810;-75
2022/06/02 01:34:36;;;;;;;1.60;1.50;;;12.00;99.90;;;;;;7367254;19;21238;-77
2022/06/02 01:37:10;;;;;;;1.57;1.50;;;12.00;99.90;;;;;;7375662;19;20424;-76
2022/06/02 01:39:57;;;;;;;1.55;1.45;;;12.00;99.90;;;;;;7379464;19;21298;-75
2022/06/02 01:42:28;;;;;;;1.70;1.50;;;11.90;99.90;;;;;;7376370;19;20358;-75
2022/06/02 01:45:14;;;;;;;1.85;1.73;;;12.00;99.90;;;;;;7378588;19;20352;-76
2022/06/02 01:47:42;;;;;;;1.80;1.70;;;11.90;99.90;;;;;;7377291;19;21262;-75
2022/06/02 01:50:32;;;;;;;1.98;1.88;;;11.90;99.90;;;;;;7376423;19;20358;-75
2022/06/02 01:53:06;;;;;;;2.10;2.00;;;11.90;99.90;;;;;;7372861;19;20352;-75
2022/06/02 01:55:53;;;;;;;1.90;1.80;;;11.90;99.90;;;;;;7378877;19;20357;-77
2022/06/02 01:58:50;;;;;;;1.98;1.88;;;11.90;99.90;;;;;;7378526;19;20377;-74
2022/06/02 02:01:27;;;;;;;1.85;1.75;;;11.80;99.90;;;;;;7374716;19;20353;-74
2022/06/02 02:04:11;;;;;;;2.08;1.98;;;11.70;99.90;;;;;;7377053;19;20353;-76
2022/06/02 02:06:42;;;;;;;2.08;1.98;;;11.60;99.90;;;;;;7377611;19;20708;-75
2022/06/02 02:09:28;;;;;;;2.20;2.00;;;11.60;99.90;;;;;;7378175;19;20336;-75
2022/06/02 02:11:54;;;;;;;2.00;1.83;;;11.50;99.90;;;;;;7375629;19;20371;-75
2022/06/02 02:14:38;;;;;;;2.17;2.00;;;11.50;99.90;;;;;;7378238;19;20380;-74
2022/06/02 02:17:45;;;;;;;2.30;2.10;;;11.40;99.90;;;;;;7376730;19;20356;-75
2022/06/02 02:20:42;;;;;;;2.25;2.08;;;11.30;99.90;;;;;;7373881;19;20466;-75
2022/06/02 02:23:31;;;;;;;2.42;2.22;;;11.20;99.90;;;;;;7375459;19;20392;-74
2022/06/02 02:26:11;;;;;;;2.10;2.00;;;11.20;99.90;;;;;;7377051;19;20372;-75
2022/06/02 02:28:55;;;;;;;2.17;1.98;;;11.10;99.90;;;;;;7377537;19;20434;-74
2022/06/02 02:31:30;;;;;;;1.98;1.88;;;11.00;99.90;;;;;;7371722;19;20938;-76
2022/06/02 02:34:30;;;;;;;2.00;1.90;;;10.90;99.90;;;;;;7376656;19;20899;-76
2022/06/02 02:37:08;;;;;;;2.60;2.40;;;10.80;99.90;;;;;;7376345;19;20369;-76
2022/06/02 02:39:51;;;;;;;2.20;2.10;;;10.80;99.90;;;;;;7375114;19;20376;-75
2022/06/02 02:42:22;;;;;;;2.30;2.10;;;10.70;99.90;;;;;;7372625;19;20439;-76
2022/06/02 02:44:53;;;;;;;2.30;2.20;;;10.60;99.90;;;;;;7375844;19;20352;-76
2022/06/02 02:47:43;;;;;;;2.90;2.20;;;10.60;99.90;;;;;;7375321;19;20352;-76
2022/06/02 02:50:20;;;;;;;2.40;2.20;;;10.50;99.90;;;;;;7373162;19;21280;-76
2022/06/02 02:52:57;;;;;;;2.47;2.28;;;10.40;99.90;;;;;;7372705;19;20924;-75
2022/06/02 02:55:29;;;;;;;2.80;2.60;;;10.40;99.90;;;;;;7375814;19;20360;-76
2022/06/02 02:58:15;;;;;;;2.50;2.30;;;10.40;99.90;;;;;;7373371;19;21001;-76
2022/06/02 03:01:00;;;;;;;2.70;2.50;;;10.40;99.90;;;;;;7373879;19;20340;-78
2022/06/02 03:03:40;;;;;;;2.83;2.63;;;10.40;99.90;;;;;;7375935;19;20362;-75
2022/06/02 03:06:15;;;;;;;3.25;2.97;;;10.50;99.90;;;;;;7376248;19;21056;-78
2022/06/02 03:08:53;;;;;;;3.00;2.75;;;10.40;99.90;;;;;;7375404;19;20356;-75
2022/06/02 03:11:52;;;;;;;4.32;3.92;;;10.40;99.90;;;;;;7367334;19;20370;-77
2022/06/02 03:14:40;;;;;;;3.00;2.80;;;10.30;99.90;;;;;;7376141;19;20337;-75
2022/06/02 03:17:17;;;;;;;2.90;2.70;;;10.40;99.90;;;;;;7374418;19;20738;-75
2022/06/02 03:19:50;;;;;;;2.78;2.58;;;10.30;99.90;;;;;;7372031;19;20376;-76
2022/06/02 03:22:36;;;;;;;3.05;2.60;;;10.40;99.90;;;;;;7374914;19;20710;-76
2022/06/02 03:25:31;;;;;;;2.80;2.60;;;10.40;99.90;;;;;;7374099;19;21198;-75
2022/06/02 03:28:36;;;;;;;3.20;3.00;;;10.40;99.90;;;;;;7374180;19;20356;-76
2022/06/02 03:31:12;;;;;;;2.90;2.70;;;10.30;99.90;;;;;;7371447;19;20345;-75
2022/06/02 03:34:13;;;;;;;3.20;3.00;;;10.30;99.90;;;;;;7376260;19;21374;-75
2022/06/02 03:36:51;;;;;;;3.07;2.87;;;10.30;99.90;;;;;;7372701;19;20363;-75
2022/06/02 03:39:49;;;;;;;3.55;3.25;;;10.30;99.90;;;;;;7375118;19;20428;-75
2022/06/02 03:42:27;;;;;;;3.30;3.00;;;10.20;99.90;;;;;;7373547;19;20348;-75
2022/06/02 03:45:10;;;;;;;3.00;2.80;;;10.30;99.90;;;;;;7384326;19;20368;-77
2022/06/02 03:47:49;;;;;;;4.23;3.10;;;10.30;99.90;;;;;;7380415;19;20360;-74
2022/06/02 03:50:36;;;;;;;2.90;2.70;;;10.40;99.90;;;;;;7374507;19;20389;-75
2022/06/02 03:53:27;;;;;;;3.28;2.97;;;10.40;99.90;;;;;;7378361;19;20360;-73
2022/06/02 03:56:07;;;;;;;3.15;2.95;;;10.50;99.90;;;;;;7379113;19;20447;-74
2022/06/02 03:58:36;;;;;;;2.80;2.60;;;10.50;99.90;;;;;;7379816;19;20878;-75
2022/06/02 04:01:04;;;;;;;3.53;3.20;;;10.50;99.90;;;;;;7377261;19;20376;-75
2022/06/02 04:03:42;;;;;;;3.20;2.95;;;10.70;99.90;;;;;;7381780;19;20364;-78
2022/06/02 04:06:34;;;;;;;3.20;3.00;;;10.60;99.90;;;;;;7381956;19;20341;-76
2022/06/02 04:09:32;;;;;;;3.30;3.00;;;10.70;99.90;;;;;;7381136;19;20364;-77
2022/06/02 04:15:24;;;;;;;3.13;2.92;;;10.90;99.90;;;;;;7383174;19;20356;-81
2022/06/02 04:18:03;;;;;;;3.80;3.50;;;10.90;99.90;;;;;;7381899;19;20375;-81
2022/06/02 04:20:44;;;;;;;3.40;3.17;;;10.90;99.90;;;;;;7380164;19;20372;-79
2022/06/02 04:23:35;;;;;;;3.40;3.10;;;10.90;99.90;;;;;;7383703;19;20377;-76
2022/06/02 04:26:26;;;;;;;2.95;2.72;;;11.00;99.90;;;;;;7380726;19;20951;-82
2022/06/02 04:29:07;;;;;;;3.40;3.10;;;11.20;99.90;;;;;;7382068;19;20344;-76
2022/06/02 04:31:58;;;;;;;3.30;3.00;;;11.30;99.90;;;;;;7381810;19;20351;-77
2022/06/02 04:37:17;;;;;;;3.00;2.80;;;11.40;99.90;;;;;;7379188;19;20364;-79
2022/06/02 04:40:13;;;;;;;3.17;2.95;;;11.50;99.90;;;;;;7389495;19;20681;-79
2022/06/02 04:42:58;;;;;;;3.40;3.10;;;11.50;99.90;;;;;;7390052;19;20360;-80
2022/06/02 04:45:26;;;;;;;3.25;2.80;;;11.60;99.90;;;;;;7385028;19;20390;-81
2022/06/02 04:48:14;;;;;;;3.20;3.00;;;11.70;99.90;;;;;;7386563;19;20356;-80
2022/06/02 04:50:58;;;;;;;3.38;3.10;;;11.70;99.90;;;;;;7384538;19;20406;-82
2022/06/02 04:53:34;;;;;;;3.40;3.20;;;11.90;99.90;;;;;;7387413;19;20973;-80
2022/06/02 04:56:25;;;;;;;3.42;3.13;;;12.00;99.90;;;;;;7385619;19;20350;-83
2022/06/02 04:59:11;;;;;;;3.20;2.90;;;11.90;99.90;;;;;;7405080;19;20763;-81
2022/06/02 05:01:55;;;;;;;3.22;2.95;;;12.00;99.90;;;;;;7393071;19;20348;-87
2022/06/02 05:04:38;;;;;;;3.13;2.83;;;12.10;99.90;;;;;;7386318;19;20785;-82
2022/06/02 05:07:10;;;;;;;3.40;3.10;;;12.20;99.90;;;;;;7383916;19;20373;-79
2022/06/02 05:09:45;;;;;;;3.20;3.00;;;12.30;99.90;;;;;;7388038;19;20372;-83
2022/06/02 05:12:41;;;;;;;2.90;2.70;;;12.40;99.90;;;;;;7382981;19;20692;-81
2022/06/02 05:15:46;;;;;;;3.75;2.95;;;12.60;99.90;;;;;;7377509;19;20352;-82
2022/06/02 05:18:41;;;;;;;3.50;3.20;;;12.60;99.90;;;;;;7380817;19;20388;-81
2022/06/02 05:21:09;;;;;;;2.88;2.67;;;12.70;99.90;;;;;;7383157;19;20444;-80
2022/06/02 05:24:04;;;;;;;3.10;2.90;;;12.90;99.90;;;;;;7385423;19;20329;-78
2022/06/02 05:26:51;;;;;;;3.28;3.08;;;13.10;99.90;;;;;;7384395;19;21160;-79
2022/06/02 05:29:48;;;;;;;3.60;3.30;;;13.00;99.90;;;;;;7386979;19;20356;-77
2022/06/02 05:32:40;;;;;;;3.50;3.20;;;13.00;99.90;;;;;;7389389;19;20340;-80
2022/06/02 05:35:19;;;;;;;3.63;3.33;;;13.10;99.90;;;;;;7382684;19;20365;-80
2022/06/02 05:38:27;;;;;;;3.67;3.10;;;13.20;99.90;;;;;;7384960;19;21230;-81
2022/06/02 05:41:14;;;;;;;3.70;3.40;;;13.20;99.90;;;;;;7382264;19;20348;-81
2022/06/02 05:43:54;;;;;;;3.38;3.10;;;13.40;99.90;;;;;;7385573;19;20385;-79
2022/06/02 05:46:57;;;;;;;3.15;2.90;;;13.60;99.90;;;;;;7383561;19;20386;-83
2022/06/02 05:49:29;;;;;;;3.40;3.10;;;13.80;99.90;;;;;;7385861;19;20324;-83
2022/06/02 05:52:05;;;;;;;3.53;3.22;;;13.90;99.90;;;;;;7381945;19;20352;-78
2022/06/02 05:54:49;;;;;;;3.13;2.83;;;13.90;99.90;;;;;;7381871;19;20375;-76
2022/06/02 05:57:39;;;;;;;3.50;3.20;;;14.10;99.90;;;;;;7376970;19;20356;-78
2022/06/02 06:00:20;;;;;;;2.90;2.70;;;14.30;99.90;;;;;;7381102;19;20796;-78
2022/06/02 06:03:04;;;;;;;4.00;3.38;;;14.30;99.90;;;;;;7279987;19;2004435;-78
2022/06/02 06:05:52;;;;;;;3.60;3.30;;;14.50;99.90;;;;;;7376894;19;20360;-79
2022/06/02 06:08:29;;;;;;;3.42;3.13;;;14.70;99.90;;;;;;7378390;19;20346;-81
2022/06/02 06:11:16;;;;;;;3.13;2.87;;;14.80;99.90;;;;;;7377580;19;20354;-79
2022/06/02 06:13:54;;;;;;;3.97;3.17;;;14.90;99.90;;;;;;7380029;19;20441;-75
2022/06/02 06:16:28;;;;;;;3.00;2.80;;;15.00;99.90;;;;;;7377592;19;20368;-81
2022/06/02 06:19:35;;;;;;;3.40;3.10;;;15.10;99.90;;;;;;7376133;19;20348;-77
2022/06/02 06:22:26;;;;;;;3.30;3.00;;;15.30;99.90;;;;;;7376539;19;20372;-75
2022/06/02 06:25:10;;;;;;;3.40;3.10;;;15.40;99.90;;;;;;7375801;19;20365;-79
2022/06/02 06:28:13;;;;;;;3.75;3.25;;;15.50;99.90;;;;;;7375239;19;20466;-79
2022/06/02 06:30:52;;;;;;;3.60;3.30;;;15.50;99.90;;;;;;7376711;19;20300;-75
2022/06/02 06:33:45;;;;;;;3.33;3.03;;;15.50;99.90;;;;;;7379473;19;20912;-75
2022/06/02 06:36:22;;;;;;;4.15;2.88;;;15.70;99.90;;;;;;7378155;19;20368;-83
2022/06/02 06:39:17;;;;;;;3.40;3.10;;;15.90;99.90;;;;;;7376642;19;20361;-82
2022/06/02 06:42:02;;;;;;;3.30;3.00;;;15.90;99.90;;;;;;7380024;19;21202;-78
2022/06/02 06:44:30;;;;;;;3.30;3.00;;;16.00;99.90;;;;;;7378806;19;20367;-80
2022/06/02 06:47:19;;;;;;;3.28;2.97;;;16.00;99.90;;;;;;7376115;19;20876;-83
2022/06/02 06:50:02;;;;;;;3.35;3.05;;;16.00;99.90;;;;;;7376260;19;20340;-77
2022/06/02 06:52:56;;;;;;;3.10;2.90;;;16.00;99.90;;;;;;7379194;19;20710;-77
2022/06/02 06:55:35;;;;;;;3.27;3.07;;;16.20;99.90;;;;;;7378170;19;20356;-78
2022/06/02 06:58:23;;;;;;;2.83;2.63;;;16.40;99.90;;;;;;7380086;19;20365;-79
2022/06/02 07:01:24;;;;;;;3.58;2.60;;;16.50;99.90;;;;;;7384671;19;20320;-81
2022/06/02 07:04:07;;;;;;;3.15;2.85;;;16.80;99.90;;;;;;7386914;19;20364;-80
2022/06/02 07:06:45;;;;;;;3.37;2.67;;;16.70;99.90;;;;;;7385138;19;20364;-83
2022/06/02 07:09:24;;;;;;;2.70;2.50;;;16.60;99.90;;;;;;7381387;19;21114;-79
2022/06/02 07:14:47;;;;;;;3.88;2.80;;;17.00;99.90;;;;;;7382015;19;20372;-81
2022/06/02 07:17:35;;;;;;;2.80;2.60;;;17.00;99.90;;;;;;7377881;19;20395;-75
2022/06/02 07:20:48;;;;;;;2.40;2.20;;;17.00;99.90;;;;;;7378570;19;21043;-80
2022/06/02 07:23:23;;;;;;;2.60;2.40;;;17.10;99.90;;;;;;7378121;19;21039;-83
2022/06/02 07:26:10;;;;;;;2.13;2.00;;;17.10;99.90;;;;;;7374179;19;20348;-76
2022/06/02 07:29:12;;;;;;;2.55;2.35;;;17.30;99.90;;;;;;7376604;19;20894;-81
2022/06/02 07:32:03;;;;;;;4.38;2.10;;;17.10;99.90;;;;;;7379267;19;20371;-74
2022/06/02 07:34:52;;;;;;;1.97;1.87;;;17.30;99.90;;;;;;7381361;19;20368;-82
2022/06/02 07:37:33;;;;;;;2.20;1.80;;;17.60;99.90;;;;;;7375728;19;20377;-77
2022/06/02 07:40:21;;;;;;;2.20;2.00;;;17.60;99.90;;;;;;7381462;19;21043;-78
2022/06/02 07:43:14;;;;;;;1.88;1.77;;;17.20;99.90;;;;;;7381818;19;20458;-80
2022/06/02 07:45:55;;;;;;;2.08;1.98;;;17.70;99.90;;;;;;7376664;19;21322;-81
2022/06/02 07:48:25;;;;;;;2.35;2.15;;;17.90;99.90;;;;;;7376112;19;20493;-82
2022/06/02 07:51:31;;;;;;;1.90;1.80;;;17.60;99.90;;;;;;7376118;19;20341;-75
2022/06/02 07:54:29;;;;;;;3.33;1.92;;;17.60;99.90;;;;;;7373059;19;20381;-77
2022/06/02 07:57:14;;;;;;;2.03;1.80;;;17.90;99.90;;;;;;7376405;19;21035;-75
2022/06/02 07:59:55;;;;;;;2.08;1.95;;;18.10;99.90;;;;;;7378688;19;20699;-76
2022/06/02 08:02:36;;;;;;;2.38;1.50;;;18.20;99.90;;;;;;7374149;19;20333;-76
2022/06/02 08:05:23;;;;;;;1.70;1.60;;;17.80;99.90;;;;;;7373984;19;20389;-82
2022/06/02 08:07:56;;;;;;;2.00;1.80;;;18.00;99.90;;;;;;7375662;19;20369;-80
2022/06/02 08:10:40;;;;;;;2.20;1.70;;;17.90;99.90;;;;;;7374686;19;20368;-82
2022/06/02 08:13:22;;;;;;;2.10;1.98;;;18.10;99.90;;;;;;7378837;19;20348;-83
2022/06/02 08:15:54;;;;;;;2.00;1.90;;;18.20;99.90;;;;;;7375506;19;20357;-83
2022/06/02 08:18:31;;;;;;;1.70;1.60;;;18.50;99.90;;;;;;7377496;19;20891;-81
2022/06/02 08:21:17;;;;;;;1.50;1.40;;;18.90;99.90;;;;;;7378318;19;21220;-78
2022/06/02 08:24:12;;;;;;;1.30;1.20;;;19.00;99.90;;;;;;7375591;19;20467;-82
2022/06/02 08:26:51;;;;;;;1.95;1.85;;;19.20;99.90;;;;;;7377543;19;20414;-82
2022/06/02 08:29:47;;;;;;;1.50;1.40;;;19.30;99.90;;;;;;7380946;19;20414;-81
2022/06/02 08:32:30;;;;;;;1.30;1.20;;;19.40;99.90;;;;;;7385422;19;20378;-79
2022/06/02 08:35:33;;;;;;;1.20;1.20;;;19.30;99.90;;;;;;7382972;19;20352;-81
2022/06/02 08:38:23;;;;;;;1.70;1.60;;;18.90;99.90;;;;;;7382615;19;20371;-81
2022/06/02 08:40:55;;;;;;;2.90;2.60;;;19.30;99.90;;;;;;7381910;19;20372;-81
2022/06/02 08:43:42;;;;;;;1.17;1.08;;;19.70;99.90;;;;;;7384783;19;20345;-79
2022/06/02 08:46:32;;;;;;;1.15;1.15;;;19.90;99.90;;;;;;7382680;19;20386;-80
2022/06/02 08:48:58;;;;;;;1.03;0.97;;;20.10;99.90;;;;;;7384838;19;20371;-78
2022/06/02 08:51:23;;;;;;;1.25;1.15;;;20.40;99.90;;;;;;7385688;19;20356;-78
2022/06/02 08:54:21;;;;;;;1.00;1.00;;;20.30;99.90;;;;;;7381341;19;20351;-75
2022/06/02 08:57:10;;;;;;;1.80;1.20;;;20.00;99.90;;;;;;7382640;19;20340;-80
2022/06/02 09:00:04;;;;;;;1.30;1.20;;;20.00;99.90;;;;;;7381057;19;20332;-80
2022/06/02 09:03:06;;;;;;;0.82;0.82;;;20.00;99.90;;;;;;7379812;19;20348;-76
2022/06/02 09:05:51;;;;;;;1.08;1.08;;;20.30;99.90;;;;;;7382690;19;20742;-75
2022/06/02 09:08:35;;;;;;;1.30;1.20;;;20.50;99.90;;;;;;7379234;19;20356;-78
2022/06/02 09:11:26;;;;;;;1.20;1.10;;;20.70;99.90;;;;;;7380840;19;20361;-84
2022/06/02 09:14:25;;;;;;;1.10;1.00;;;21.10;99.90;;;;;;7381821;19;20410;-83
2022/06/02 09:16:55;;;;;;;1.00;1.00;;;20.80;99.60;;;;;;7378309;19;20340;-77
2022/06/02 09:19:39;;;;;;;2.10;1.00;;;21.00;99.90;;;;;;7381566;19;20383;-76
2022/06/02 09:22:16;;;;;;;1.63;1.10;;;21.10;99.80;;;;;;7381817;19;20380;-78
2022/06/02 09:24:47;;;;;;;1.20;1.10;;;21.40;99.10;;;;;;7380343;19;20365;-82
2022/06/02 09:27:49;;;;;;;1.40;1.02;;;20.30;96.70;;;;;;7380087;19;20887;-79
2022/06/02 09:30:17;;;;;;;0.90;0.90;;;21.10;96.90;;;;;;7381426;19;20389;-85
2022/06/02 09:33:33;;;;;;;1.02;1.00;;;20.50;95.70;;;;;;7380527;19;20352;-81
2022/06/02 09:35:58;;;;;;;1.80;1.00;;;20.70;98.60;;;;;;7380208;19;20376;-85
2022/06/02 09:38:41;;;;;;;1.08;0.98;;;21.20;97.40;;;;;;7379037;19;20405;-81
2022/06/02 09:41:20;;;;;;;1.23;1.13;;;21.80;99.50;;;;;;7378060;19;21115;-80
2022/06/02 09:44:04;;;;;;;1.33;0.90;;;22.20;97.00;;;;;;7379518;19;20367;-82
2022/06/02 09:47:08;;;;;;;0.90;0.90;;;22.10;96.30;;;;;;7381073;19;20355;-77
2022/06/02 09:50:19;;;;;;;1.05;1.00;;;21.60;94.10;;;;;;7383064;19;20358;-80
2022/06/02 09:52:57;;;;;;;1.10;0.93;;;21.70;94.50;;;;;;7377213;19;20344;-79
2022/06/02 09:55:28;;;;;;;1.40;1.30;;;22.10;94.80;;;;;;7379779;19;20368;-76
2022/06/02 09:58:05;;;;;;;0.93;0.93;;;22.00;94.10;;;;;;7374849;19;20755;-81
2022/06/02 10:00:46;;;;;;;0.90;0.90;;;22.40;93.00;;;;;;7380573;19;20305;-78
2022/06/02 10:03:44;;;;;;;1.00;1.00;;;23.10;94.00;;;;;;7380387;19;20373;-80
2022/06/02 10:06:31;;;;;;;1.00;1.00;;;22.90;93.30;;;;;;7376794;19;20369;-76
2022/06/02 10:09:26;;;;;;;0.90;0.90;;;22.30;90.90;;;;;;7379353;19;20356;-75
2022/06/02 10:14:56;;;;;;;1.10;1.00;;;22.80;91.80;;;;;;7380443;19;21371;-79
2022/06/02 10:17:30;;;;;;;0.93;0.93;;;23.10;87.90;;;;;;7376530;19;20356;-83
2022/06/02 10:20:18;;;;;;;2.22;1.00;;;23.40;90.60;;;;;;7377894;19;20367;-79
2022/06/02 10:23:11;;;;;;;3.20;1.30;;;23.30;90.40;;;;;;7381825;19;20360;-79
2022/06/02 10:26:09;;;;;;;8.80;1.83;;;22.90;86.10;;;;;;7377608;19;20469;-78
2022/06/02 10:29:04;;;;;;;1.07;1.07;;;22.10;85.60;;;;;;7376496;19;20348;-80
2022/06/02 10:31:34;;;;;;;1.10;1.10;;;22.20;89.10;;;;;;7374934;19;21213;-75
2022/06/02 10:34:18;;;;;;;1.00;1.00;;;22.70;90.50;;;;;;7375819;19;20365;-79
2022/06/02 10:37:23;;;;;;;1.00;1.00;;;23.30;91.00;;;;;;7374344;19;20659;-78
2022/06/02 10:40:05;;;;;;;1.00;1.00;;;22.50;88.30;;;;;;7375537;19;20360;-80
2022/06/02 10:42:41;;;;;;;1.90;1.20;;;20.70;79.40;;;;;;7375404;19;20344;-80
2022/06/02 10:45:13;;;;;;;0.93;0.93;;;20.30;83.80;;;;;;7377057;19;20368;-81
2022/06/02 10:48:04;;;;;;;1.00;1.00;;;21.30;84.20;;;;;;7380662;19;20352;-81
2022/06/02 10:51:15;;;;;;;1.10;1.10;;;21.50;86.90;;;;;;7380021;19;20396;-79
2022/06/02 10:53:59;;;;;;;1.48;1.38;;;22.20;89.40;;;;;;7380553;19;20335;-77
2022/06/02 10:56:44;;;;;;;1.10;1.10;;;21.90;88.20;;;;;;7379780;19;20382;-77
2022/06/02 10:59:30;;;;;;;1.00;1.00;;;22.60;91.20;;;;;;7376942;19;20356;-79
2022/06/02 11:02:23;;;;;;;1.00;1.00;;;22.90;88.90;;;;;;7379242;19;20417;-77
2022/06/02 11:05:16;;;;;;;0.90;0.90;;;22.60;86.90;;;;;;7381187;19;20372;-80
2022/06/02 11:08:17;;;;;;;1.20;1.10;;;22.70;88.00;;;;;;7377592;19;20368;-77
2022/06/02 11:11:07;;;;;;;0.98;0.98;;;22.70;86.60;;;;;;7379909;19;20604;-79
2022/06/02 11:14:00;;;;;;;0.90;0.90;;;22.70;88.00;;;;;;7380213;19;20371;-79
2022/06/02 11:16:42;;;;;;;0.83;0.83;;;23.50;90.50;;;;;;7379081;19;20356;-80
2022/06/02 11:19:11;;;;;;;1.07;1.03;;;24.10;86.80;;;;;;7378574;19;20343;-81
2022/06/02 11:22:05;;;;;;;0.80;0.80;;;24.30;82.50;;;;;;7381372;19;20340;-80
2022/06/02 11:25:04;;;;;;;0.88;0.88;;;23.60;82.10;;;;;;7380723;19;20352;-80
2022/06/02 11:27:48;;;;;;;0.98;0.98;;;24.00;81.10;;;;;;7378660;19;20460;-81
2022/06/02 11:30:48;;;;;;;0.70;0.70;;;23.90;77.10;;;;;;7382242;19;20961;-83
2022/06/02 11:33:29;;;;;;;0.95;0.85;;;24.50;80.20;;;;;;7381446;19;20395;-84
2022/06/02 11:36:03;;;;;;;1.00;1.00;;;24.80;74.40;;;;;;7377352;19;20387;-79
2022/06/02 11:38:56;;;;;;;0.80;0.80;;;25.20;78.20;;;;;;7376679;19;20344;-78
2022/06/02 11:41:30;;;;;;;1.20;1.00;;;25.10;73.50;;;;;;7375500;19;20348;-82
2022/06/02 11:44:03;;;;;;;0.95;0.95;;;25.70;74.40;;;;;;7376685;19;20377;-82
2022/06/02 11:47:01;;;;;;;0.90;0.90;;;25.00;72.40;;;;;;7375664;19;20724;-82
2022/06/02 11:49:58;;;;;;;0.95;0.95;;;25.30;77.80;;;;;;7376060;19;20374;-78
2022/06/02 11:52:26;;;;;;;4.60;1.02;;;25.40;77.80;;;;;;7380065;19;20356;-78
2022/06/02 11:55:07;;;;;;;0.90;0.90;;;25.40;71.10;;;;;;7377892;19;20372;-81
2022/06/02 11:57:46;;;;;;;1.00;1.00;;;25.30;75.30;;;;;;7374761;19;20360;-80
2022/06/02 12:00:26;;;;;;;0.90;0.90;;;25.60;72.00;;;;;;7375139;19;20344;-81
2022/06/02 12:03:15;;;;;;;0.80;0.80;;;24.60;73.40;;;;;;7380704;19;20357;-85
2022/06/02 12:05:46;;;;;;;1.40;1.00;;;25.40;70.00;;;;;;7385795;19;20460;-81
2022/06/02 12:08:38;;;;;;;0.90;0.80;;;25.80;73.70;;;;;;7383553;19;20373;-80
2022/06/02 12:11:26;;;;;;;0.80;0.80;;;26.60;72.00;;;;;;7383475;19;21306;-82
2022/06/02 12:14:16;;;;;;;1.27;0.90;;;26.90;69.30;;;;;;7384250;19;20867;-81
2022/06/02 12:16:45;;;;;;;1.02;1.00;;;27.00;67.80;;;;;;7382161;19;20367;-85
2022/06/02 12:19:20;;;;;;;0.80;0.80;;;26.40;68.30;;;;;;7383009;19;20796;-81
2022/06/02 12:21:48;;;;;;;0.73;0.73;;;25.50;63.00;;;;;;7385330;19;20366;-78
2022/06/02 12:24:39;;;;;;;0.80;0.80;;;25.60;67.30;;;;;;7386253;19;20360;-82
2022/06/02 12:27:17;;;;;;;0.80;0.73;;;25.70;64.30;;;;;;7383568;19;21236;-78
2022/06/02 12:30:06;;;;;;;0.75;0.75;;;25.40;65.00;;;;;;7383511;19;20366;-78
2022/06/02 12:32:48;;;;;;;0.70;0.70;;;26.00;66.00;;;;;;7385197;19;20355;-80
2022/06/02 12:35:36;;;;;;;1.00;0.90;;;26.20;63.50;;;;;;7383254;19;20704;-78
2022/06/02 12:38:23;;;;;;;0.80;0.80;;;26.70;66.50;;;;;;7380505;19;20381;-79
2022/06/02 12:40:57;;;;;;;0.80;0.80;;;26.80;68.20;;;;;;7382792;19;20381;-80
2022/06/02 12:43:39;;;;;;;0.80;0.80;;;27.40;67.40;;;;;;7382991;19;20356;-78
2022/06/02 12:46:29;;;;;;;0.80;0.80;;;27.20;62.30;;;;;;7380609;19;20332;-79
2022/06/02 12:49:24;;;;;;;4.80;0.73;;;26.70;58.70;;;;;;7384173;19;20369;-78
2022/06/02 12:52:18;;;;;;;0.90;0.90;;;27.00;61.50;;;;;;7382228;19;20363;-77
2022/06/02 12:55:03;;;;;;;0.90;0.90;;;26.60;59.20;;;;;;7380763;19;20357;-79
2022/06/02 12:57:48;;;;;;;0.73;0.73;;;26.90;62.60;;;;;;7378708;19;20901;-78
2022/06/02 13:00:47;;;;;;;0.82;0.82;;;27.10;63.30;;;;;;7381308;19;20398;-80
2022/06/02 13:03:54;;;;;;;0.80;0.80;;;26.60;61.70;;;;;;7382774;19;20402;-86
2022/06/02 13:06:43;;;;;;;0.90;0.90;;;24.80;60.90;;;;;;7383603;19;20363;-81
2022/06/02 13:09:21;;;;;;;0.80;0.80;;;24.80;59.90;;;;;;7380935;19;20340;-83
2022/06/02 13:11:55;;;;;;;1.00;0.90;;;25.10;62.40;;;;;;7382213;19;20789;-79
2022/06/02 13:14:39;;;;;;;0.80;0.80;;;25.90;63.30;;;;;;7382435;19;20452;-82
2022/06/02 13:17:17;;;;;;;1.38;0.80;;;26.30;62.70;;;;;;7381904;19;20407;-79
2022/06/02 13:19:55;;;;;;;0.80;0.80;;;26.90;62.90;;;;;;7379259;19;20440;-78
2022/06/02 13:22:40;;;;;;;0.75;0.75;;;27.20;60.40;;;;;;7382099;19;20340;-84
2022/06/02 13:25:12;;;;;;;0.90;0.90;;;26.20;58.90;;;;;;7380715;19;20370;-85
2022/06/02 13:28:02;;;;;;;1.48;1.38;;;26.80;60.50;;;;;;7381000;19;20394;-79
2022/06/02 13:30:58;;;;;;;0.80;0.77;;;26.80;57.90;;;;;;7380037;19;20345;-77
2022/06/02 13:33:57;;;;;;;0.70;0.70;;;26.80;56.40;;;;;;7382103;19;20834;-82
2022/06/02 13:36:41;;;;;;;0.73;0.73;;;25.50;56.80;;;;;;7378724;19;21243;-82
2022/06/02 13:39:51;;;;;;;0.60;0.60;;;25.30;58.90;;;;;;7377745;19;20348;-84
2022/06/02 13:42:40;;;;;;;0.70;0.70;;;26.50;58.70;;;;;;7384121;19;20460;-81
2022/06/02 13:45:16;;;;;;;0.80;0.80;;;27.10;57.80;;;;;;7378848;19;20365;-77
2022/06/02 13:48:20;;;;;;;0.90;0.90;;;26.80;57.60;;;;;;7378919;19;20428;-82
2022/06/02 13:51:06;;;;;;;0.80;0.80;;;27.20;59.40;;;;;;7378548;19;20342;-80
2022/06/02 13:57:30;;;;;;;0.70;0.70;;;27.20;53.80;;;;;;7381943;19;21112;-79
2022/06/02 13:59:35;;;;;;;0.70;0.70;;;28.00;57.10;;;;;;7383457;19;20364;-80
2022/06/02 14:02:35;;;;;;;0.85;0.85;;;28.00;55.00;;;;;;7379395;19;20333;-83
2022/06/02 14:05:15;;;;;;;2.20;0.73;;;27.90;54.90;;;;;;7380128;19;20465;-79
2022/06/02 14:08:13;;;;;;;0.80;0.80;;;27.60;54.10;;;;;;7386334;19;20370;-81
2022/06/02 14:10:57;;;;;;;0.80;0.80;;;27.20;54.60;;;;;;7382708;19;20407;-82
2022/06/02 14:13:50;;;;;;;0.80;0.80;;;26.80;55.40;;;;;;7381730;19;21184;-83
2022/06/02 14:16:37;;;;;;;0.73;0.73;;;27.60;55.10;;;;;;7382952;19;20348;-78
2022/06/02 14:19:21;;;;;;;0.80;0.80;;;26.70;53.50;;;;;;7381107;19;20361;-86
2022/06/02 14:21:58;;;;;;;1.05;0.77;;;27.20;55.30;;;;;;7381387;19;21065;-80
2022/06/02 14:24:36;;;;;;;0.70;0.70;;;27.00;53.10;;;;;;7380723;19;20361;-80
2022/06/02 14:27:17;;;;;;;1.90;0.98;;;25.50;51.90;;;;;;7380118;19;20373;-81
2022/06/02 14:30:02;;;;;;;0.82;0.82;;;25.60;55.90;;;;;;7381925;19;20456;-81
2022/06/02 14:33:02;;;;;;;0.70;0.70;;;24.90;56.10;;;;;;7378492;19;20375;-82
2022/06/02 14:35:51;;;;;;;4.18;0.90;;;24.20;54.80;;;;;;7378174;19;20374;-80
2022/06/02 14:38:51;;;;;;;0.70;0.70;;;24.60;57.10;;;;;;7385612;19;21278;-85